sensor_id;sensor_type;location;lat;lon;timestamp;P1;durP1;ratioP1;P2;durP2;ratioP2
20076;SDS011;12348;42.710;23.378;2023-02-11T00:00:55;21.57;;;10.20;;
20076;SDS011;12348;42.710;23.378;2023-02-11T00:03:22;18.60;;;10.30;;
20076;SDS011;12348;42.710;23.378;2023-02-11T00:05:58;25.47;;;11.50;;
20076;SDS011;12348;42.710;23.378;2023-02-11T00:08:27;18.60;;;10.30;;
20076;SDS011;12348;42.710;23.378;2023-02-11T00:10:54;24.53;;;10.53;;
20076;SDS011;12348;42.710;23.378;2023-02-11T00:13:23;24.40;;;10.27;;
20076;SDS011;12348;42.710;23.378;2023-02-11T00:15:50;26.57;;;10.03;;
20076;SDS011;12348;42.710;23.378;2023-02-11T00:18:17;23.77;;;10.40;;
20076;SDS011;12348;42.710;23.378;2023-02-11T00:20:44;27.80;;;11.53;;
20076;SDS011;12348;42.710;23.378;2023-02-11T00:23:11;28.20;;;12.10;;
20076;SDS011;12348;42.710;23.378;2023-02-11T00:25:40;22.47;;;10.10;;
20076;SDS011;12348;42.710;23.378;2023-02-11T00:28:07;25.13;;;11.20;;
20076;SDS011;12348;42.710;23.378;2023-02-11T00:30:35;22.53;;;9.87;;
20076;SDS011;12348;42.710;23.378;2023-02-11T00:33:02;26.23;;;10.80;;
20076;SDS011;12348;42.710;23.378;2023-02-11T00:35:29;27.07;;;11.90;;
20076;SDS011;12348;42.710;23.378;2023-02-11T00:37:56;23.67;;;8.40;;
20076;SDS011;12348;42.710;23.378;2023-02-11T00:40:23;24.70;;;9.77;;
20076;SDS011;12348;42.710;23.378;2023-02-11T00:42:51;17.40;;;8.97;;
20076;SDS011;12348;42.710;23.378;2023-02-11T00:45:18;22.77;;;11.13;;
20076;SDS011;12348;42.710;23.378;2023-02-11T00:47:46;16.67;;;9.80;;
20076;SDS011;12348;42.710;23.378;2023-02-11T00:50:13;28.03;;;11.73;;
20076;SDS011;12348;42.710;23.378;2023-02-11T00:52:40;21.37;;;11.63;;
20076;SDS011;12348;42.710;23.378;2023-02-11T00:55:07;26.10;;;9.67;;
20076;SDS011;12348;42.710;23.378;2023-02-11T00:57:34;22.87;;;10.87;;
20076;SDS011;12348;42.710;23.378;2023-02-11T01:00:04;22.13;;;9.07;;
20076;SDS011;12348;42.710;23.378;2023-02-11T01:02:32;27.10;;;10.23;;
20076;SDS011;12348;42.710;23.378;2023-02-11T01:04:59;21.50;;;8.77;;
20076;SDS011;12348;42.710;23.378;2023-02-11T01:07:26;17.97;;;8.70;;
20076;SDS011;12348;42.710;23.378;2023-02-11T01:09:53;26.30;;;12.77;;
20076;SDS011;12348;42.710;23.378;2023-02-11T01:12:22;22.17;;;10.10;;
20076;SDS011;12348;42.710;23.378;2023-02-11T01:14:49;20.97;;;10.97;;
20076;SDS011;12348;42.710;23.378;2023-02-11T01:17:17;17.90;;;8.93;;
20076;SDS011;12348;42.710;23.378;2023-02-11T01:19:44;29.13;;;10.60;;
20076;SDS011;12348;42.710;23.378;2023-02-11T01:22:11;17.50;;;8.43;;
20076;SDS011;12348;42.710;23.378;2023-02-11T01:24:37;24.47;;;10.33;;
20076;SDS011;12348;42.710;23.378;2023-02-11T01:27:04;22.47;;;10.30;;
20076;SDS011;12348;42.710;23.378;2023-02-11T01:29:31;16.57;;;8.33;;
20076;SDS011;12348;42.710;23.378;2023-02-11T01:31:58;14.30;;;6.23;;
20076;SDS011;12348;42.710;23.378;2023-02-11T01:34:27;23.80;;;9.30;;
20076;SDS011;12348;42.710;23.378;2023-02-11T01:36:55;22.87;;;8.87;;
20076;SDS011;12348;42.710;23.378;2023-02-11T01:39:23;14.20;;;7.83;;
20076;SDS011;12348;42.710;23.378;2023-02-11T01:41:49;13.37;;;8.13;;
20076;SDS011;12348;42.710;23.378;2023-02-11T01:44:23;26.50;;;9.97;;
20076;SDS011;12348;42.710;23.378;2023-02-11T01:46:52;18.80;;;8.90;;
20076;SDS011;12348;42.710;23.378;2023-02-11T01:49:20;12.50;;;7.53;;
20076;SDS011;12348;42.710;23.378;2023-02-11T01:51:52;13.63;;;7.97;;
20076;SDS011;12348;42.710;23.378;2023-02-11T01:54:24;17.70;;;8.33;;
20076;SDS011;12348;42.710;23.378;2023-02-11T01:57:13;24.60;;;7.03;;
20076;SDS011;12348;42.710;23.378;2023-02-11T01:59:57;15.90;;;9.13;;
20076;SDS011;12348;42.710;23.378;2023-02-11T02:02:29;26.80;;;8.03;;
20076;SDS011;12348;42.710;23.378;2023-02-11T02:05:01;20.90;;;10.00;;
20076;SDS011;12348;42.710;23.378;2023-02-11T02:07:35;22.37;;;8.90;;
20076;SDS011;12348;42.710;23.378;2023-02-11T02:10:08;20.47;;;9.53;;
20076;SDS011;12348;42.710;23.378;2023-02-11T02:12:39;25.43;;;5.07;;
20076;SDS011;12348;42.710;23.378;2023-02-11T02:15:19;16.83;;;8.13;;
20076;SDS011;12348;42.710;23.378;2023-02-11T02:17:56;10.17;;;7.03;;
20076;SDS011;12348;42.710;23.378;2023-02-11T02:20:33;14.60;;;7.20;;
20076;SDS011;12348;42.710;23.378;2023-02-11T02:32:27;15.30;;;7.07;;
20076;SDS011;12348;42.710;23.378;2023-02-11T02:35:01;8.40;;;6.77;;
20076;SDS011;12348;42.710;23.378;2023-02-11T02:37:35;20.10;;;8.77;;
20076;SDS011;12348;42.710;23.378;2023-02-11T02:40:08;14.33;;;7.63;;
20076;SDS011;12348;42.710;23.378;2023-02-11T02:42:39;13.93;;;7.73;;
20076;SDS011;12348;42.710;23.378;2023-02-11T02:45:07;6.40;;;4.87;;
20076;SDS011;12348;42.710;23.378;2023-02-11T02:47:37;22.47;;;7.77;;
20076;SDS011;12348;42.710;23.378;2023-02-11T02:50:04;24.27;;;9.63;;
20076;SDS011;12348;42.710;23.378;2023-02-11T02:52:34;18.40;;;8.67;;
20076;SDS011;12348;42.710;23.378;2023-02-11T02:55:10;29.40;;;6.57;;
20076;SDS011;12348;42.710;23.378;2023-02-11T02:57:52;15.17;;;6.80;;
20076;SDS011;12348;42.710;23.378;2023-02-11T03:00:42;18.27;;;6.63;;
20076;SDS011;12348;42.710;23.378;2023-02-11T03:03:24;18.43;;;7.40;;
20076;SDS011;12348;42.710;23.378;2023-02-11T03:06:02;21.57;;;8.80;;
20076;SDS011;12348;42.710;23.378;2023-02-11T03:08:36;17.13;;;7.73;;
20076;SDS011;12348;42.710;23.378;2023-02-11T03:11:08;17.70;;;6.53;;
20076;SDS011;12348;42.710;23.378;2023-02-11T03:13:37;12.13;;;7.43;;
20076;SDS011;12348;42.710;23.378;2023-02-11T03:16:07;12.53;;;7.23;;
20076;SDS011;12348;42.710;23.378;2023-02-11T03:18:38;14.20;;;6.57;;
20076;SDS011;12348;42.710;23.378;2023-02-11T03:21:08;19.07;;;8.73;;
20076;SDS011;12348;42.710;23.378;2023-02-11T03:23:36;18.10;;;9.17;;
20076;SDS011;12348;42.710;23.378;2023-02-11T03:26:08;23.70;;;7.37;;
20076;SDS011;12348;42.710;23.378;2023-02-11T03:28:41;14.23;;;7.93;;
20076;SDS011;12348;42.710;23.378;2023-02-11T03:31:16;12.70;;;6.50;;
20076;SDS011;12348;42.710;23.378;2023-02-11T03:33:51;11.20;;;6.33;;
20076;SDS011;12348;42.710;23.378;2023-02-11T03:36:23;19.67;;;7.77;;
20076;SDS011;12348;42.710;23.378;2023-02-11T03:38:56;21.67;;;7.20;;
20076;SDS011;12348;42.710;23.378;2023-02-11T03:41:26;16.93;;;7.10;;
20076;SDS011;12348;42.710;23.378;2023-02-11T03:43:55;18.33;;;6.47;;
20076;SDS011;12348;42.710;23.378;2023-02-11T03:46:27;14.00;;;5.47;;
20076;SDS011;12348;42.710;23.378;2023-02-11T03:49:00;16.20;;;6.57;;
20076;SDS011;12348;42.710;23.378;2023-02-11T03:51:29;8.97;;;6.87;;
20076;SDS011;12348;42.710;23.378;2023-02-11T03:53:59;29.63;;;8.40;;
20076;SDS011;12348;42.710;23.378;2023-02-11T03:56:30;17.27;;;6.80;;
20076;SDS011;12348;42.710;23.378;2023-02-11T03:59:02;19.57;;;7.00;;
20076;SDS011;12348;42.710;23.378;2023-02-11T04:01:28;24.73;;;9.20;;
20076;SDS011;12348;42.710;23.378;2023-02-11T04:03:55;12.43;;;7.87;;
20076;SDS011;12348;42.710;23.378;2023-02-11T04:06:24;22.03;;;9.87;;
20076;SDS011;12348;42.710;23.378;2023-02-11T04:08:51;28.77;;;11.07;;
20076;SDS011;12348;42.710;23.378;2023-02-11T04:11:17;16.57;;;7.67;;
20076;SDS011;12348;42.710;23.378;2023-02-11T04:13:44;22.13;;;8.77;;
20076;SDS011;12348;42.710;23.378;2023-02-11T04:16:11;16.63;;;7.03;;
20076;SDS011;12348;42.710;23.378;2023-02-11T04:18:38;18.03;;;7.23;;
20076;SDS011;12348;42.710;23.378;2023-02-11T04:21:04;16.70;;;7.83;;
20076;SDS011;12348;42.710;23.378;2023-02-11T04:23:32;16.97;;;7.10;;
20076;SDS011;12348;42.710;23.378;2023-02-11T04:25:59;13.33;;;5.40;;
20076;SDS011;12348;42.710;23.378;2023-02-11T04:28:26;10.20;;;5.53;;
20076;SDS011;12348;42.710;23.378;2023-02-11T04:30:53;10.37;;;6.60;;
20076;SDS011;12348;42.710;23.378;2023-02-11T04:33:20;5.87;;;5.07;;
20076;SDS011;12348;42.710;23.378;2023-02-11T04:35:47;9.97;;;6.63;;
20076;SDS011;12348;42.710;23.378;2023-02-11T04:38:14;15.83;;;5.60;;
20076;SDS011;12348;42.710;23.378;2023-02-11T04:40:42;15.70;;;5.67;;
20076;SDS011;12348;42.710;23.378;2023-02-11T04:43:09;14.43;;;6.03;;
20076;SDS011;12348;42.710;23.378;2023-02-11T04:45:36;12.90;;;5.10;;
20076;SDS011;12348;42.710;23.378;2023-02-11T04:48:03;17.77;;;7.40;;
20076;SDS011;12348;42.710;23.378;2023-02-11T04:50:30;12.63;;;6.40;;
20076;SDS011;12348;42.710;23.378;2023-02-11T04:52:57;14.23;;;5.87;;
20076;SDS011;12348;42.710;23.378;2023-02-11T04:55:23;9.23;;;5.37;;
20076;SDS011;12348;42.710;23.378;2023-02-11T04:57:52;9.63;;;6.77;;
20076;SDS011;12348;42.710;23.378;2023-02-11T05:00:19;13.53;;;6.07;;
20076;SDS011;12348;42.710;23.378;2023-02-11T05:02:46;6.40;;;4.93;;
20076;SDS011;12348;42.710;23.378;2023-02-11T05:05:13;12.33;;;4.80;;
20076;SDS011;12348;42.710;23.378;2023-02-11T05:07:39;9.77;;;6.27;;
20076;SDS011;12348;42.710;23.378;2023-02-11T05:10:06;10.27;;;5.10;;
20076;SDS011;12348;42.710;23.378;2023-02-11T05:12:33;18.97;;;9.27;;
20076;SDS011;12348;42.710;23.378;2023-02-11T05:15:02;11.33;;;8.10;;
20076;SDS011;12348;42.710;23.378;2023-02-11T05:17:28;14.80;;;7.20;;
20076;SDS011;12348;42.710;23.378;2023-02-11T05:19:55;14.83;;;10.10;;
20076;SDS011;12348;42.710;23.378;2023-02-11T05:22:22;28.83;;;14.40;;
20076;SDS011;12348;42.710;23.378;2023-02-11T05:24:49;24.07;;;14.30;;
20076;SDS011;12348;42.710;23.378;2023-02-11T05:27:15;25.27;;;12.90;;
20076;SDS011;12348;42.710;23.378;2023-02-11T05:29:42;37.37;;;16.70;;
20076;SDS011;12348;42.710;23.378;2023-02-11T05:32:10;28.80;;;14.23;;
20076;SDS011;12348;42.710;23.378;2023-02-11T05:34:37;30.03;;;13.10;;
20076;SDS011;12348;42.710;23.378;2023-02-11T05:37:04;26.13;;;11.47;;
20076;SDS011;12348;42.710;23.378;2023-02-11T05:39:31;37.83;;;13.50;;
20076;SDS011;12348;42.710;23.378;2023-02-11T05:41:58;32.87;;;16.47;;
20076;SDS011;12348;42.710;23.378;2023-02-11T05:44:24;21.77;;;12.33;;
20076;SDS011;12348;42.710;23.378;2023-02-11T05:46:51;31.80;;;12.57;;
20076;SDS011;12348;42.710;23.378;2023-02-11T05:49:20;37.27;;;15.70;;
20076;SDS011;12348;42.710;23.378;2023-02-11T05:51:46;33.33;;;15.73;;
20076;SDS011;12348;42.710;23.378;2023-02-11T05:54:13;30.73;;;15.07;;
20076;SDS011;12348;42.710;23.378;2023-02-11T05:56:40;18.87;;;9.40;;
20076;SDS011;12348;42.710;23.378;2023-02-11T05:59:07;33.30;;;13.80;;
20076;SDS011;12348;42.710;23.378;2023-02-11T06:01:34;27.03;;;13.27;;
20076;SDS011;12348;42.710;23.378;2023-02-11T06:04:01;31.00;;;13.40;;
20076;SDS011;12348;42.710;23.378;2023-02-11T06:06:29;21.10;;;10.77;;
20076;SDS011;12348;42.710;23.378;2023-02-11T06:08:56;27.50;;;10.87;;
20076;SDS011;12348;42.710;23.378;2023-02-11T06:11:24;22.93;;;9.43;;
20076;SDS011;12348;42.710;23.378;2023-02-11T06:13:51;28.83;;;11.60;;
20076;SDS011;12348;42.710;23.378;2023-02-11T06:16:18;23.47;;;10.43;;
20076;SDS011;12348;42.710;23.378;2023-02-11T06:18:44;23.87;;;11.13;;
20076;SDS011;12348;42.710;23.378;2023-02-11T06:21:11;25.77;;;10.57;;
20076;SDS011;12348;42.710;23.378;2023-02-11T06:23:42;19.27;;;9.63;;
20076;SDS011;12348;42.710;23.378;2023-02-11T06:26:09;22.47;;;10.33;;
20076;SDS011;12348;42.710;23.378;2023-02-11T06:28:42;36.13;;;11.80;;
20076;SDS011;12348;42.710;23.378;2023-02-11T06:31:08;25.30;;;10.97;;
20076;SDS011;12348;42.710;23.378;2023-02-11T06:33:36;31.07;;;11.37;;
20076;SDS011;12348;42.710;23.378;2023-02-11T06:36:04;24.87;;;12.23;;
20076;SDS011;12348;42.710;23.378;2023-02-11T06:38:40;18.83;;;10.13;;
20076;SDS011;12348;42.710;23.378;2023-02-11T06:41:08;19.20;;;8.80;;
20076;SDS011;12348;42.710;23.378;2023-02-11T06:43:35;22.77;;;10.80;;
20076;SDS011;12348;42.710;23.378;2023-02-11T06:46:02;24.87;;;12.47;;
20076;SDS011;12348;42.710;23.378;2023-02-11T06:48:29;21.63;;;8.83;;
20076;SDS011;12348;42.710;23.378;2023-02-11T06:50:56;18.90;;;9.73;;
20076;SDS011;12348;42.710;23.378;2023-02-11T06:53:26;24.53;;;11.03;;
20076;SDS011;12348;42.710;23.378;2023-02-11T06:56:00;20.00;;;8.90;;
20076;SDS011;12348;42.710;23.378;2023-02-11T06:58:28;23.80;;;9.47;;
20076;SDS011;12348;42.710;23.378;2023-02-11T07:00:56;33.73;;;16.67;;
20076;SDS011;12348;42.710;23.378;2023-02-11T07:03:22;26.60;;;11.10;;
20076;SDS011;12348;42.710;23.378;2023-02-11T07:05:50;26.23;;;11.93;;
20076;SDS011;12348;42.710;23.378;2023-02-11T07:08:17;30.63;;;14.27;;
20076;SDS011;12348;42.710;23.378;2023-02-11T07:10:43;31.40;;;15.40;;
20076;SDS011;12348;42.710;23.378;2023-02-11T07:13:12;37.23;;;17.30;;
20076;SDS011;12348;42.710;23.378;2023-02-11T07:15:38;46.13;;;21.27;;
20076;SDS011;12348;42.710;23.378;2023-02-11T07:18:05;49.17;;;19.73;;
20076;SDS011;12348;42.710;23.378;2023-02-11T07:20:32;36.23;;;19.83;;
20076;SDS011;12348;42.710;23.378;2023-02-11T07:22:59;36.70;;;19.03;;
20076;SDS011;12348;42.710;23.378;2023-02-11T07:25:25;42.90;;;19.73;;
20076;SDS011;12348;42.710;23.378;2023-02-11T07:27:52;45.57;;;19.87;;
20076;SDS011;12348;42.710;23.378;2023-02-11T07:30:20;39.23;;;17.50;;
20076;SDS011;12348;42.710;23.378;2023-02-11T07:32:47;40.90;;;19.20;;
20076;SDS011;12348;42.710;23.378;2023-02-11T07:35:14;40.33;;;17.67;;
20076;SDS011;12348;42.710;23.378;2023-02-11T07:37:41;36.37;;;17.80;;
20076;SDS011;12348;42.710;23.378;2023-02-11T07:40:08;39.30;;;20.13;;
20076;SDS011;12348;42.710;23.378;2023-02-11T07:42:35;41.43;;;18.10;;
20076;SDS011;12348;42.710;23.378;2023-02-11T07:45:04;40.53;;;18.03;;
20076;SDS011;12348;42.710;23.378;2023-02-11T07:47:34;40.37;;;17.93;;
20076;SDS011;12348;42.710;23.378;2023-02-11T07:50:01;36.67;;;17.33;;
20076;SDS011;12348;42.710;23.378;2023-02-11T07:52:28;42.07;;;19.53;;
20076;SDS011;12348;42.710;23.378;2023-02-11T07:54:55;41.00;;;20.50;;
20076;SDS011;12348;42.710;23.378;2023-02-11T07:57:21;41.57;;;20.40;;
20076;SDS011;12348;42.710;23.378;2023-02-11T07:59:48;38.73;;;20.43;;
20076;SDS011;12348;42.710;23.378;2023-02-11T08:02:15;43.40;;;20.33;;
20076;SDS011;12348;42.710;23.378;2023-02-11T08:04:43;36.80;;;18.97;;
20076;SDS011;12348;42.710;23.378;2023-02-11T08:07:13;37.13;;;19.67;;
20076;SDS011;12348;42.710;23.378;2023-02-11T08:09:40;41.97;;;18.37;;
20076;SDS011;12348;42.710;23.378;2023-02-11T08:12:07;40.37;;;19.50;;
20076;SDS011;12348;42.710;23.378;2023-02-11T08:14:34;41.20;;;18.93;;
20076;SDS011;12348;42.710;23.378;2023-02-11T08:17:00;39.83;;;18.27;;
20076;SDS011;12348;42.710;23.378;2023-02-11T08:19:28;30.60;;;17.37;;
20076;SDS011;12348;42.710;23.378;2023-02-11T08:21:56;39.73;;;18.50;;
20076;SDS011;12348;42.710;23.378;2023-02-11T08:24:24;33.13;;;16.30;;
20076;SDS011;12348;42.710;23.378;2023-02-11T08:26:51;37.13;;;18.03;;
20076;SDS011;12348;42.710;23.378;2023-02-11T08:29:18;34.67;;;17.63;;
20076;SDS011;12348;42.710;23.378;2023-02-11T08:31:45;34.67;;;18.10;;
20076;SDS011;12348;42.710;23.378;2023-02-11T08:34:13;36.40;;;18.43;;
20076;SDS011;12348;42.710;23.378;2023-02-11T08:36:43;40.47;;;17.77;;
20076;SDS011;12348;42.710;23.378;2023-02-11T08:39:13;38.73;;;18.53;;
20076;SDS011;12348;42.710;23.378;2023-02-11T08:41:41;40.57;;;17.33;;
20076;SDS011;12348;42.710;23.378;2023-02-11T08:44:08;34.57;;;16.70;;
20076;SDS011;12348;42.710;23.378;2023-02-11T08:46:35;35.60;;;17.70;;
20076;SDS011;12348;42.710;23.378;2023-02-11T08:49:02;33.37;;;16.50;;
20076;SDS011;12348;42.710;23.378;2023-02-11T08:51:28;35.03;;;17.07;;
20076;SDS011;12348;42.710;23.378;2023-02-11T08:53:56;31.13;;;17.67;;
20076;SDS011;12348;42.710;23.378;2023-02-11T08:56:24;32.10;;;16.30;;
20076;SDS011;12348;42.710;23.378;2023-02-11T08:58:51;34.70;;;16.73;;
20076;SDS011;12348;42.710;23.378;2023-02-11T09:01:20;30.20;;;15.97;;
20076;SDS011;12348;42.710;23.378;2023-02-11T09:03:48;36.53;;;17.73;;
20076;SDS011;12348;42.710;23.378;2023-02-11T09:06:15;33.53;;;16.73;;
20076;SDS011;12348;42.710;23.378;2023-02-11T09:08:43;50.10;;;17.63;;
20076;SDS011;12348;42.710;23.378;2023-02-11T09:11:13;37.70;;;17.93;;
20076;SDS011;12348;42.710;23.378;2023-02-11T09:13:41;34.50;;;17.00;;
20076;SDS011;12348;42.710;23.378;2023-02-11T09:16:14;31.50;;;16.80;;
20076;SDS011;12348;42.710;23.378;2023-02-11T09:18:43;27.93;;;15.27;;
20076;SDS011;12348;42.710;23.378;2023-02-11T09:21:10;26.80;;;14.27;;
20076;SDS011;12348;42.710;23.378;2023-02-11T09:23:37;27.90;;;13.67;;
20076;SDS011;12348;42.710;23.378;2023-02-11T09:26:08;27.50;;;14.20;;
20076;SDS011;12348;42.710;23.378;2023-02-11T09:28:37;27.27;;;14.53;;
20076;SDS011;12348;42.710;23.378;2023-02-11T09:31:06;30.67;;;15.37;;
20076;SDS011;12348;42.710;23.378;2023-02-11T09:33:34;27.27;;;14.53;;
20076;SDS011;12348;42.710;23.378;2023-02-11T09:36:01;32.30;;;14.07;;
20076;SDS011;12348;42.710;23.378;2023-02-11T09:38:29;26.37;;;13.27;;
20076;SDS011;12348;42.710;23.378;2023-02-11T09:40:56;31.77;;;14.77;;
20076;SDS011;12348;42.710;23.378;2023-02-11T09:43:24;26.10;;;13.80;;
20076;SDS011;12348;42.710;23.378;2023-02-11T09:45:56;26.77;;;13.47;;
20076;SDS011;12348;42.710;23.378;2023-02-11T09:48:24;27.30;;;15.30;;
20076;SDS011;12348;42.710;23.378;2023-02-11T09:50:52;26.50;;;13.80;;
20076;SDS011;12348;42.710;23.378;2023-02-11T09:53:23;32.73;;;15.17;;
20076;SDS011;12348;42.710;23.378;2023-02-11T09:55:51;29.80;;;14.10;;
20076;SDS011;12348;42.710;23.378;2023-02-11T09:58:24;23.97;;;13.13;;
20076;SDS011;12348;42.710;23.378;2023-02-11T10:00:55;23.60;;;12.67;;
20076;SDS011;12348;42.710;23.378;2023-02-11T10:06:38;29.40;;;14.77;;
20076;SDS011;12348;42.710;23.378;2023-02-11T10:09:15;32.43;;;14.00;;
20076;SDS011;12348;42.710;23.378;2023-02-11T10:11:51;23.73;;;12.47;;
20076;SDS011;12348;42.710;23.378;2023-02-11T10:14:29;30.57;;;14.50;;
20076;SDS011;12348;42.710;23.378;2023-02-11T10:17:13;24.27;;;11.57;;
20076;SDS011;12348;42.710;23.378;2023-02-11T10:19:56;23.07;;;12.27;;
20076;SDS011;12348;42.710;23.378;2023-02-11T10:22:34;25.20;;;12.83;;
20076;SDS011;12348;42.710;23.378;2023-02-11T10:25:07;23.83;;;13.80;;
20076;SDS011;12348;42.710;23.378;2023-02-11T10:27:43;31.43;;;14.07;;
20076;SDS011;12348;42.710;23.378;2023-02-11T10:30:14;24.93;;;12.90;;
20076;SDS011;12348;42.710;23.378;2023-02-11T10:32:47;30.67;;;14.90;;
20076;SDS011;12348;42.710;23.378;2023-02-11T10:35:23;26.07;;;14.07;;
20076;SDS011;12348;42.710;23.378;2023-02-11T10:37:51;26.63;;;13.87;;
20076;SDS011;12348;42.710;23.378;2023-02-11T10:40:20;29.87;;;13.73;;
20076;SDS011;12348;42.710;23.378;2023-02-11T10:42:49;26.73;;;14.57;;
20076;SDS011;12348;42.710;23.378;2023-02-11T10:45:20;26.33;;;12.80;;
20076;SDS011;12348;42.710;23.378;2023-02-11T10:47:52;28.27;;;13.10;;
20076;SDS011;12348;42.710;23.378;2023-02-11T10:50:23;37.80;;;20.23;;
20076;SDS011;12348;42.710;23.378;2023-02-11T10:52:51;22.80;;;11.97;;
20076;SDS011;12348;42.710;23.378;2023-02-11T10:55:18;34.83;;;14.50;;
20076;SDS011;12348;42.710;23.378;2023-02-11T10:57:51;48.07;;;22.90;;
20076;SDS011;12348;42.710;23.378;2023-02-11T11:00:32;26.93;;;13.03;;
20076;SDS011;12348;42.710;23.378;2023-02-11T11:03:03;46.43;;;22.77;;
20076;SDS011;12348;42.710;23.378;2023-02-11T11:05:35;26.00;;;11.70;;
20076;SDS011;12348;42.710;23.378;2023-02-11T11:08:10;26.17;;;11.40;;
20076;SDS011;12348;42.710;23.378;2023-02-11T11:10:38;27.37;;;12.97;;
20076;SDS011;12348;42.710;23.378;2023-02-11T11:18:44;23.23;;;12.23;;
20076;SDS011;12348;42.710;23.378;2023-02-11T11:21:14;25.40;;;12.97;;
20076;SDS011;12348;42.710;23.378;2023-02-11T11:23:48;19.27;;;10.77;;
20076;SDS011;12348;42.710;23.378;2023-02-11T11:26:18;22.97;;;11.13;;
20076;SDS011;12348;42.710;23.378;2023-02-11T11:31:43;20.57;;;8.83;;
20076;SDS011;12348;42.710;23.378;2023-02-11T11:34:19;16.43;;;10.10;;
20076;SDS011;12348;42.710;23.378;2023-02-11T11:36:49;16.77;;;8.43;;
20076;SDS011;12348;42.710;23.378;2023-02-11T11:39:18;21.57;;;11.33;;
20076;SDS011;12348;42.710;23.378;2023-02-11T11:41:48;18.40;;;7.57;;
20076;SDS011;12348;42.710;23.378;2023-02-11T11:44:20;19.83;;;9.43;;
20076;SDS011;12348;42.710;23.378;2023-02-11T11:46:51;16.30;;;8.33;;
20076;SDS011;12348;42.710;23.378;2023-02-11T11:49:32;14.47;;;7.87;;
20076;SDS011;12348;42.710;23.378;2023-02-11T11:52:08;16.17;;;8.13;;
20076;SDS011;12348;42.710;23.378;2023-02-11T11:54:41;15.77;;;8.30;;
20076;SDS011;12348;42.710;23.378;2023-02-11T11:57:11;36.83;;;16.47;;
20076;SDS011;12348;42.710;23.378;2023-02-11T11:59:42;11.80;;;7.07;;
20076;SDS011;12348;42.710;23.378;2023-02-11T12:02:26;14.03;;;6.93;;
20076;SDS011;12348;42.710;23.378;2023-02-11T12:05:12;14.60;;;8.37;;
20076;SDS011;12348;42.710;23.378;2023-02-11T12:07:53;19.90;;;7.73;;
20076;SDS011;12348;42.710;23.378;2023-02-11T12:10:30;14.20;;;7.53;;
20076;SDS011;12348;42.710;23.378;2023-02-11T12:13:15;15.63;;;7.30;;
20076;SDS011;12348;42.710;23.378;2023-02-11T12:15:54;14.57;;;6.57;;
20076;SDS011;12348;42.710;23.378;2023-02-11T12:18:47;14.23;;;7.13;;
20076;SDS011;12348;42.710;23.378;2023-02-11T12:21:34;15.97;;;8.40;;
20076;SDS011;12348;42.710;23.378;2023-02-11T12:24:14;16.13;;;7.47;;
20076;SDS011;12348;42.710;23.378;2023-02-11T12:26:55;14.10;;;7.13;;
20076;SDS011;12348;42.710;23.378;2023-02-11T12:29:29;12.27;;;7.33;;
20076;SDS011;12348;42.710;23.378;2023-02-11T12:32:09;14.70;;;7.13;;
20076;SDS011;12348;42.710;23.378;2023-02-11T12:34:49;44.17;;;19.37;;
20076;SDS011;12348;42.710;23.378;2023-02-11T12:37:31;19.03;;;8.47;;
20076;SDS011;12348;42.710;23.378;2023-02-11T12:40:11;16.90;;;8.17;;
20076;SDS011;12348;42.710;23.378;2023-02-11T12:42:49;12.87;;;7.20;;
20076;SDS011;12348;42.710;23.378;2023-02-11T12:45:45;16.63;;;7.90;;
20076;SDS011;12348;42.710;23.378;2023-02-11T12:48:28;13.80;;;7.37;;
20076;SDS011;12348;42.710;23.378;2023-02-11T12:51:21;18.57;;;8.33;;
20076;SDS011;12348;42.710;23.378;2023-02-11T12:54:09;12.87;;;6.43;;
20076;SDS011;12348;42.710;23.378;2023-02-11T12:56:47;14.50;;;7.37;;
20076;SDS011;12348;42.710;23.378;2023-02-11T12:59:24;12.47;;;6.23;;
20076;SDS011;12348;42.710;23.378;2023-02-11T13:01:58;19.43;;;6.73;;
20076;SDS011;12348;42.710;23.378;2023-02-11T13:04:32;12.87;;;6.90;;
20076;SDS011;12348;42.710;23.378;2023-02-11T13:07:03;13.53;;;7.07;;
20076;SDS011;12348;42.710;23.378;2023-02-11T13:09:37;13.47;;;6.33;;
20076;SDS011;12348;42.710;23.378;2023-02-11T13:12:10;14.43;;;6.83;;
20076;SDS011;12348;42.710;23.378;2023-02-11T13:14:57;15.27;;;7.93;;
20076;SDS011;12348;42.710;23.378;2023-02-11T13:17:28;16.40;;;7.43;;
20076;SDS011;12348;42.710;23.378;2023-02-11T13:20:00;14.03;;;7.20;;
20076;SDS011;12348;42.710;23.378;2023-02-11T13:22:42;12.77;;;6.47;;
20076;SDS011;12348;42.710;23.378;2023-02-11T13:25:14;23.67;;;10.30;;
20076;SDS011;12348;42.710;23.378;2023-02-11T13:27:52;15.83;;;7.80;;
20076;SDS011;12348;42.710;23.378;2023-02-11T13:30:23;14.07;;;7.00;;
20076;SDS011;12348;42.710;23.378;2023-02-11T13:36:09;18.63;;;7.53;;
20076;SDS011;12348;42.710;23.378;2023-02-11T13:38:39;13.97;;;6.97;;
20076;SDS011;12348;42.710;23.378;2023-02-11T13:41:17;13.03;;;6.77;;
20076;SDS011;12348;42.710;23.378;2023-02-11T13:43:57;16.50;;;7.43;;
20076;SDS011;12348;42.710;23.378;2023-02-11T13:46:26;16.93;;;7.20;;
20076;SDS011;12348;42.710;23.378;2023-02-11T13:48:55;12.97;;;7.10;;
20076;SDS011;12348;42.710;23.378;2023-02-11T13:51:33;11.50;;;6.27;;
20076;SDS011;12348;42.710;23.378;2023-02-11T13:54:02;17.47;;;7.13;;
20076;SDS011;12348;42.710;23.378;2023-02-11T13:56:31;15.93;;;7.53;;
20076;SDS011;12348;42.710;23.378;2023-02-11T13:59:02;12.40;;;5.87;;
20076;SDS011;12348;42.710;23.378;2023-02-11T14:01:41;9.70;;;5.13;;
20076;SDS011;12348;42.710;23.378;2023-02-11T14:05:00;10.93;;;5.90;;
20076;SDS011;12348;42.710;23.378;2023-02-11T14:19:55;14.23;;;6.20;;
20076;SDS011;12348;42.710;23.378;2023-02-11T14:22:24;9.23;;;5.33;;
20076;SDS011;12348;42.710;23.378;2023-02-11T14:24:54;14.63;;;6.67;;
20076;SDS011;12348;42.710;23.378;2023-02-11T14:27:24;11.40;;;6.03;;
20076;SDS011;12348;42.710;23.378;2023-02-11T14:30:07;10.97;;;5.83;;
20076;SDS011;12348;42.710;23.378;2023-02-11T14:32:46;12.17;;;5.67;;
20076;SDS011;12348;42.710;23.378;2023-02-11T14:35:27;10.20;;;5.40;;
20076;SDS011;12348;42.710;23.378;2023-02-11T14:38:02;16.30;;;6.60;;
20076;SDS011;12348;42.710;23.378;2023-02-11T14:40:38;16.03;;;6.97;;
20076;SDS011;12348;42.710;23.378;2023-02-11T14:43:12;10.87;;;6.50;;
20076;SDS011;12348;42.710;23.378;2023-02-11T14:45:47;7.30;;;4.70;;
20076;SDS011;12348;42.710;23.378;2023-02-11T14:48:17;13.37;;;6.63;;
20076;SDS011;12348;42.710;23.378;2023-02-11T14:50:46;14.67;;;5.50;;
20076;SDS011;12348;42.710;23.378;2023-02-11T14:53:16;13.33;;;5.97;;
20076;SDS011;12348;42.710;23.378;2023-02-11T14:55:46;11.87;;;5.87;;
20076;SDS011;12348;42.710;23.378;2023-02-11T14:58:17;17.70;;;6.57;;
20076;SDS011;12348;42.710;23.378;2023-02-11T15:00:47;20.07;;;6.67;;
20076;SDS011;12348;42.710;23.378;2023-02-11T15:03:23;15.67;;;6.07;;
20076;SDS011;12348;42.710;23.378;2023-02-11T15:05:53;13.30;;;5.60;;
20076;SDS011;12348;42.710;23.378;2023-02-11T15:08:22;12.47;;;6.53;;
20076;SDS011;12348;42.710;23.378;2023-02-11T15:10:49;18.13;;;7.40;;
20076;SDS011;12348;42.710;23.378;2023-02-11T15:13:19;13.67;;;6.93;;